sensor_id;sensor_type;location;lat;lon;timestamp;P1;durP1;ratioP1;P2;durP2;ratioP2
16352;SDS011;8286;51.274;9.542;2023-03-31T00:02:09;2.27;;;1.30;;
16352;SDS011;8286;51.274;9.542;2023-03-31T00:04:38;1.60;;;1.30;;
16352;SDS011;8286;51.274;9.542;2023-03-31T00:07:11;1.23;;;0.90;;
16352;SDS011;8286;51.274;9.542;2023-03-31T00:09:39;2.37;;;1.20;;
16352;SDS011;8286;51.274;9.542;2023-03-31T00:12:06;2.70;;;1.30;;
16352;SDS011;8286;51.274;9.542;2023-03-31T00:14:32;7.07;;;1.53;;
16352;SDS011;8286;51.274;9.542;2023-03-31T00:16:59;7.73;;;1.53;;
16352;SDS011;8286;51.274;9.542;2023-03-31T00:19:26;4.80;;;1.30;;
16352;SDS011;8286;51.274;9.542;2023-03-31T00:21:53;3.07;;;1.20;;
16352;SDS011;8286;51.274;9.542;2023-03-31T00:24:20;5.30;;;1.10;;
16352;SDS011;8286;51.274;9.542;2023-03-31T00:26:47;7.13;;;1.83;;
16352;SDS011;8286;51.274;9.542;2023-03-31T00:29:13;6.67;;;1.30;;
16352;SDS011;8286;51.274;9.542;2023-03-31T00:31:40;3.03;;;0.93;;
16352;SDS011;8286;51.274;9.542;2023-03-31T00:34:07;5.30;;;1.63;;
16352;SDS011;8286;51.274;9.542;2023-03-31T00:36:33;4.60;;;1.23;;
16352;SDS011;8286;51.274;9.542;2023-03-31T00:39:11;1.60;;;1.13;;
16352;SDS011;8286;51.274;9.542;2023-03-31T00:41:40;6.80;;;1.67;;
16352;SDS011;8286;51.274;9.542;2023-03-31T00:44:09;7.93;;;1.30;;
16352;SDS011;8286;51.274;9.542;2023-03-31T00:46:42;6.90;;;1.37;;
16352;SDS011;8286;51.274;9.542;2023-03-31T00:49:13;1.20;;;1.10;;
16352;SDS011;8286;51.274;9.542;2023-03-31T00:51:42;8.70;;;1.80;;
16352;SDS011;8286;51.274;9.542;2023-03-31T00:54:10;4.00;;;1.37;;
16352;SDS011;8286;51.274;9.542;2023-03-31T00:56:38;7.00;;;1.60;;
16352;SDS011;8286;51.274;9.542;2023-03-31T00:59:08;4.90;;;1.50;;
16352;SDS011;8286;51.274;9.542;2023-03-31T01:01:37;4.13;;;1.30;;
16352;SDS011;8286;51.274;9.542;2023-03-31T01:04:06;3.10;;;1.30;;
16352;SDS011;8286;51.274;9.542;2023-03-31T01:06:34;1.77;;;1.47;;
16352;SDS011;8286;51.274;9.542;2023-03-31T01:09:04;3.43;;;1.37;;
16352;SDS011;8286;51.274;9.542;2023-03-31T01:11:31;5.23;;;1.47;;
16352;SDS011;8286;51.274;9.542;2023-03-31T01:14:00;4.73;;;1.93;;
16352;SDS011;8286;51.274;9.542;2023-03-31T01:16:28;3.27;;;0.97;;
16352;SDS011;8286;51.274;9.542;2023-03-31T01:18:55;2.03;;;1.23;;
16352;SDS011;8286;51.274;9.542;2023-03-31T01:21:31;3.17;;;1.13;;
16352;SDS011;8286;51.274;9.542;2023-03-31T01:24:18;1.27;;;1.10;;
16352;SDS011;8286;51.274;9.542;2023-03-31T01:27:25;3.90;;;1.33;;
16352;SDS011;8286;51.274;9.542;2023-03-31T01:33:29;2.23;;;1.20;;
16352;SDS011;8286;51.274;9.542;2023-03-31T01:36:15;2.13;;;0.73;;
16352;SDS011;8286;51.274;9.542;2023-03-31T01:39:00;7.17;;;1.30;;
16352;SDS011;8286;51.274;9.542;2023-03-31T01:41:39;2.43;;;1.70;;
16352;SDS011;8286;51.274;9.542;2023-03-31T01:44:13;2.53;;;1.47;;
16352;SDS011;8286;51.274;9.542;2023-03-31T01:46:45;2.30;;;1.43;;
16352;SDS011;8286;51.274;9.542;2023-03-31T01:49:17;2.83;;;1.30;;
16352;SDS011;8286;51.274;9.542;2023-03-31T01:51:49;2.57;;;1.37;;
16352;SDS011;8286;51.274;9.542;2023-03-31T01:54:20;5.07;;;1.40;;
16352;SDS011;8286;51.274;9.542;2023-03-31T01:56:51;5.43;;;1.00;;
16352;SDS011;8286;51.274;9.542;2023-03-31T01:59:22;3.83;;;1.10;;
16352;SDS011;8286;51.274;9.542;2023-03-31T02:01:51;3.23;;;1.00;;
16352;SDS011;8286;51.274;9.542;2023-03-31T02:04:21;1.00;;;0.90;;
16352;SDS011;8286;51.274;9.542;2023-03-31T02:06:50;3.37;;;1.33;;
16352;SDS011;8286;51.274;9.542;2023-03-31T02:09:21;2.40;;;1.10;;
16352;SDS011;8286;51.274;9.542;2023-03-31T02:11:48;1.13;;;0.80;;
16352;SDS011;8286;51.274;9.542;2023-03-31T02:14:18;5.57;;;1.17;;
16352;SDS011;8286;51.274;9.542;2023-03-31T02:16:47;1.40;;;0.97;;
16352;SDS011;8286;51.274;9.542;2023-03-31T02:19:15;5.97;;;1.10;;
16352;SDS011;8286;51.274;9.542;2023-03-31T02:21:44;5.30;;;1.70;;
16352;SDS011;8286;51.274;9.542;2023-03-31T02:24:13;0.73;;;0.73;;
16352;SDS011;8286;51.274;9.542;2023-03-31T02:26:41;1.27;;;0.90;;
16352;SDS011;8286;51.274;9.542;2023-03-31T02:29:12;1.83;;;0.93;;
16352;SDS011;8286;51.274;9.542;2023-03-31T02:31:40;4.17;;;1.23;;
16352;SDS011;8286;51.274;9.542;2023-03-31T02:34:11;2.40;;;0.90;;
16352;SDS011;8286;51.274;9.542;2023-03-31T02:36:38;3.23;;;1.97;;
16352;SDS011;8286;51.274;9.542;2023-03-31T02:39:06;1.63;;;0.90;;
16352;SDS011;8286;51.274;9.542;2023-03-31T02:41:34;3.07;;;1.00;;
16352;SDS011;8286;51.274;9.542;2023-03-31T02:44:00;3.73;;;0.77;;
16352;SDS011;8286;51.274;9.542;2023-03-31T02:46:28;3.30;;;1.67;;
16352;SDS011;8286;51.274;9.542;2023-03-31T02:48:55;4.40;;;1.50;;
16352;SDS011;8286;51.274;9.542;2023-03-31T02:54:31;4.03;;;1.20;;
16352;SDS011;8286;51.274;9.542;2023-03-31T03:00:05;1.30;;;0.70;;
16352;SDS011;8286;51.274;9.542;2023-03-31T03:02:38;4.37;;;1.10;;
16352;SDS011;8286;51.274;9.542;2023-03-31T03:05:20;3.27;;;1.20;;
16352;SDS011;8286;51.274;9.542;2023-03-31T03:07:53;6.40;;;1.57;;
16352;SDS011;8286;51.274;9.542;2023-03-31T03:10:26;2.00;;;1.10;;
16352;SDS011;8286;51.274;9.542;2023-03-31T03:12:55;2.63;;;0.90;;
16352;SDS011;8286;51.274;9.542;2023-03-31T03:15:25;3.43;;;1.30;;
16352;SDS011;8286;51.274;9.542;2023-03-31T03:17:56;2.50;;;1.10;;
16352;SDS011;8286;51.274;9.542;2023-03-31T03:20:24;3.60;;;1.27;;
16352;SDS011;8286;51.274;9.542;2023-03-31T03:22:50;4.30;;;1.20;;
16352;SDS011;8286;51.274;9.542;2023-03-31T03:25:17;1.33;;;1.20;;
16352;SDS011;8286;51.274;9.542;2023-03-31T03:27:44;5.60;;;1.47;;
16352;SDS011;8286;51.274;9.542;2023-03-31T03:30:12;2.77;;;1.33;;
16352;SDS011;8286;51.274;9.542;2023-03-31T03:32:39;3.53;;;1.30;;
16352;SDS011;8286;51.274;9.542;2023-03-31T03:35:07;3.07;;;1.20;;
16352;SDS011;8286;51.274;9.542;2023-03-31T03:37:34;2.53;;;0.90;;
16352;SDS011;8286;51.274;9.542;2023-03-31T03:40:02;4.90;;;1.17;;
16352;SDS011;8286;51.274;9.542;2023-03-31T03:42:29;1.20;;;1.10;;
16352;SDS011;8286;51.274;9.542;2023-03-31T03:44:56;3.40;;;1.20;;
16352;SDS011;8286;51.274;9.542;2023-03-31T03:47:22;1.90;;;1.00;;
16352;SDS011;8286;51.274;9.542;2023-03-31T03:49:49;2.70;;;1.20;;
16352;SDS011;8286;51.274;9.542;2023-03-31T03:52:17;2.90;;;1.30;;
16352;SDS011;8286;51.274;9.542;2023-03-31T03:54:44;0.87;;;0.63;;
16352;SDS011;8286;51.274;9.542;2023-03-31T03:57:10;1.23;;;1.13;;
16352;SDS011;8286;51.274;9.542;2023-03-31T03:59:37;4.40;;;1.20;;
16352;SDS011;8286;51.274;9.542;2023-03-31T04:02:03;3.47;;;1.17;;
16352;SDS011;8286;51.274;9.542;2023-03-31T04:04:30;2.93;;;0.90;;
16352;SDS011;8286;51.274;9.542;2023-03-31T04:06:56;2.97;;;1.20;;
16352;SDS011;8286;51.274;9.542;2023-03-31T04:09:24;3.50;;;1.00;;
16352;SDS011;8286;51.274;9.542;2023-03-31T04:11:51;2.83;;;1.37;;
16352;SDS011;8286;51.274;9.542;2023-03-31T04:14:17;1.97;;;1.10;;
16352;SDS011;8286;51.274;9.542;2023-03-31T04:16:44;2.97;;;1.43;;
16352;SDS011;8286;51.274;9.542;2023-03-31T04:19:12;1.70;;;1.30;;
16352;SDS011;8286;51.274;9.542;2023-03-31T04:21:41;2.57;;;0.90;;
16352;SDS011;8286;51.274;9.542;2023-03-31T04:24:09;1.20;;;1.07;;
16352;SDS011;8286;51.274;9.542;2023-03-31T04:26:41;4.17;;;1.40;;
16352;SDS011;8286;51.274;9.542;2023-03-31T04:29:10;3.10;;;1.20;;
16352;SDS011;8286;51.274;9.542;2023-03-31T04:31:38;2.07;;;1.20;;
16352;SDS011;8286;51.274;9.542;2023-03-31T04:34:06;3.40;;;0.97;;
16352;SDS011;8286;51.274;9.542;2023-03-31T04:36:37;4.33;;;0.90;;
16352;SDS011;8286;51.274;9.542;2023-03-31T04:39:06;5.03;;;1.60;;
16352;SDS011;8286;51.274;9.542;2023-03-31T04:41:35;4.83;;;1.30;;
16352;SDS011;8286;51.274;9.542;2023-03-31T04:44:03;5.60;;;1.30;;
16352;SDS011;8286;51.274;9.542;2023-03-31T04:46:30;4.73;;;1.67;;
16352;SDS011;8286;51.274;9.542;2023-03-31T04:48:57;2.93;;;1.13;;
16352;SDS011;8286;51.274;9.542;2023-03-31T04:51:24;3.17;;;1.17;;
16352;SDS011;8286;51.274;9.542;2023-03-31T04:53:51;0.80;;;0.80;;
16352;SDS011;8286;51.274;9.542;2023-03-31T04:56:18;4.70;;;1.50;;
16352;SDS011;8286;51.274;9.542;2023-03-31T04:58:44;3.90;;;1.77;;
16352;SDS011;8286;51.274;9.542;2023-03-31T05:01:12;6.10;;;1.60;;
16352;SDS011;8286;51.274;9.542;2023-03-31T05:03:42;8.57;;;1.77;;
16352;SDS011;8286;51.274;9.542;2023-03-31T05:06:08;6.80;;;1.27;;
16352;SDS011;8286;51.274;9.542;2023-03-31T05:08:35;4.37;;;1.00;;
16352;SDS011;8286;51.274;9.542;2023-03-31T05:11:01;3.87;;;1.80;;
16352;SDS011;8286;51.274;9.542;2023-03-31T05:13:28;1.73;;;1.60;;
16352;SDS011;8286;51.274;9.542;2023-03-31T05:15:54;3.33;;;1.40;;
16352;SDS011;8286;51.274;9.542;2023-03-31T05:18:22;6.97;;;1.40;;
16352;SDS011;8286;51.274;9.542;2023-03-31T05:20:49;5.60;;;1.53;;
16352;SDS011;8286;51.274;9.542;2023-03-31T05:23:15;6.07;;;1.50;;
16352;SDS011;8286;51.274;9.542;2023-03-31T05:25:42;2.10;;;1.30;;
16352;SDS011;8286;51.274;9.542;2023-03-31T05:28:08;2.83;;;1.00;;
16352;SDS011;8286;51.274;9.542;2023-03-31T05:30:35;4.20;;;1.40;;
16352;SDS011;8286;51.274;9.542;2023-03-31T05:33:01;3.73;;;1.40;;
16352;SDS011;8286;51.274;9.542;2023-03-31T05:35:29;3.13;;;1.17;;
16352;SDS011;8286;51.274;9.542;2023-03-31T05:37:56;2.63;;;1.30;;
16352;SDS011;8286;51.274;9.542;2023-03-31T05:40:22;3.37;;;1.37;;
16352;SDS011;8286;51.274;9.542;2023-03-31T05:42:49;4.47;;;1.50;;
16352;SDS011;8286;51.274;9.542;2023-03-31T05:45:16;3.13;;;1.43;;
16352;SDS011;8286;51.274;9.542;2023-03-31T05:47:43;7.87;;;1.70;;
16352;SDS011;8286;51.274;9.542;2023-03-31T05:50:09;8.73;;;1.80;;
16352;SDS011;8286;51.274;9.542;2023-03-31T05:52:37;4.57;;;1.70;;
16352;SDS011;8286;51.274;9.542;2023-03-31T05:55:04;4.27;;;1.40;;
16352;SDS011;8286;51.274;9.542;2023-03-31T05:57:31;3.73;;;1.43;;
16352;SDS011;8286;51.274;9.542;2023-03-31T05:59:58;3.83;;;1.60;;
16352;SDS011;8286;51.274;9.542;2023-03-31T06:02:25;3.57;;;1.47;;
16352;SDS011;8286;51.274;9.542;2023-03-31T06:04:51;6.70;;;1.97;;
16352;SDS011;8286;51.274;9.542;2023-03-31T06:07:18;6.80;;;1.77;;
16352;SDS011;8286;51.274;9.542;2023-03-31T06:09:47;4.00;;;1.60;;
16352;SDS011;8286;51.274;9.542;2023-03-31T06:12:14;11.13;;;1.60;;
16352;SDS011;8286;51.274;9.542;2023-03-31T06:14:41;6.53;;;1.73;;
16352;SDS011;8286;51.274;9.542;2023-03-31T06:17:07;4.10;;;1.63;;
16352;SDS011;8286;51.274;9.542;2023-03-31T06:19:34;3.40;;;2.17;;
16352;SDS011;8286;51.274;9.542;2023-03-31T06:22:00;8.80;;;2.13;;
16352;SDS011;8286;51.274;9.542;2023-03-31T06:24:27;5.83;;;1.40;;
16352;SDS011;8286;51.274;9.542;2023-03-31T06:26:55;9.10;;;2.07;;
16352;SDS011;8286;51.274;9.542;2023-03-31T06:29:21;4.73;;;1.60;;
16352;SDS011;8286;51.274;9.542;2023-03-31T06:31:48;5.20;;;2.03;;
16352;SDS011;8286;51.274;9.542;2023-03-31T06:34:14;4.80;;;2.20;;
16352;SDS011;8286;51.274;9.542;2023-03-31T06:36:41;5.70;;;2.10;;
16352;SDS011;8286;51.274;9.542;2023-03-31T06:39:07;4.60;;;1.87;;
16352;SDS011;8286;51.274;9.542;2023-03-31T06:41:34;3.67;;;1.77;;
16352;SDS011;8286;51.274;9.542;2023-03-31T06:44:02;4.20;;;2.60;;
16352;SDS011;8286;51.274;9.542;2023-03-31T06:46:29;8.67;;;2.03;;
16352;SDS011;8286;51.274;9.542;2023-03-31T06:48:55;6.37;;;2.60;;
16352;SDS011;8286;51.274;9.542;2023-03-31T06:51:22;4.87;;;1.77;;
16352;SDS011;8286;51.274;9.542;2023-03-31T06:53:48;7.73;;;2.20;;
16352;SDS011;8286;51.274;9.542;2023-03-31T06:56:15;3.67;;;1.97;;
16352;SDS011;8286;51.274;9.542;2023-03-31T06:58:41;3.23;;;1.60;;
16352;SDS011;8286;51.274;9.542;2023-03-31T07:01:09;7.57;;;2.00;;
16352;SDS011;8286;51.274;9.542;2023-03-31T07:03:36;9.60;;;2.33;;
16352;SDS011;8286;51.274;9.542;2023-03-31T07:06:02;6.50;;;1.90;;
16352;SDS011;8286;51.274;9.542;2023-03-31T07:08:29;2.77;;;1.87;;
16352;SDS011;8286;51.274;9.542;2023-03-31T07:10:57;2.43;;;1.83;;
16352;SDS011;8286;51.274;9.542;2023-03-31T07:13:24;5.30;;;1.53;;
16352;SDS011;8286;51.274;9.542;2023-03-31T07:15:52;4.00;;;1.73;;
16352;SDS011;8286;51.274;9.542;2023-03-31T07:18:21;9.97;;;2.33;;
16352;SDS011;8286;51.274;9.542;2023-03-31T07:20:50;1.77;;;1.40;;
16352;SDS011;8286;51.274;9.542;2023-03-31T07:23:17;3.97;;;1.57;;
16352;SDS011;8286;51.274;9.542;2023-03-31T07:25:43;6.40;;;1.40;;
16352;SDS011;8286;51.274;9.542;2023-03-31T07:28:15;4.60;;;2.57;;
16352;SDS011;8286;51.274;9.542;2023-03-31T07:30:41;5.13;;;1.30;;
16352;SDS011;8286;51.274;9.542;2023-03-31T07:33:08;6.73;;;1.93;;
16352;SDS011;8286;51.274;9.542;2023-03-31T07:35:37;6.07;;;1.27;;
16352;SDS011;8286;51.274;9.542;2023-03-31T07:38:06;4.17;;;1.47;;
16352;SDS011;8286;51.274;9.542;2023-03-31T07:40:33;3.87;;;1.40;;
16352;SDS011;8286;51.274;9.542;2023-03-31T07:42:59;3.27;;;1.40;;
16352;SDS011;8286;51.274;9.542;2023-03-31T07:45:26;1.77;;;1.10;;
16352;SDS011;8286;51.274;9.542;2023-03-31T07:47:52;2.00;;;1.70;;
16352;SDS011;8286;51.274;9.542;2023-03-31T07:50:20;6.33;;;2.23;;
16352;SDS011;8286;51.274;9.542;2023-03-31T07:52:49;4.57;;;1.33;;
16352;SDS011;8286;51.274;9.542;2023-03-31T07:55:16;3.03;;;1.10;;
16352;SDS011;8286;51.274;9.542;2023-03-31T07:57:43;2.50;;;1.40;;
16352;SDS011;8286;51.274;9.542;2023-03-31T08:00:11;4.53;;;1.87;;
16352;SDS011;8286;51.274;9.542;2023-03-31T08:02:39;8.50;;;1.87;;
16352;SDS011;8286;51.274;9.542;2023-03-31T08:05:08;7.57;;;1.50;;
16352;SDS011;8286;51.274;9.542;2023-03-31T08:07:35;5.17;;;1.53;;
16352;SDS011;8286;51.274;9.542;2023-03-31T08:10:04;6.13;;;1.50;;
16352;SDS011;8286;51.274;9.542;2023-03-31T08:12:32;4.47;;;1.40;;
16352;SDS011;8286;51.274;9.542;2023-03-31T08:14:59;3.53;;;1.40;;
16352;SDS011;8286;51.274;9.542;2023-03-31T08:17:26;6.53;;;1.50;;
16352;SDS011;8286;51.274;9.542;2023-03-31T08:19:52;1.87;;;1.67;;
16352;SDS011;8286;51.274;9.542;2023-03-31T08:22:19;1.90;;;1.70;;
16352;SDS011;8286;51.274;9.542;2023-03-31T08:24:47;3.57;;;1.43;;
16352;SDS011;8286;51.274;9.542;2023-03-31T08:27:15;3.37;;;1.60;;
16352;SDS011;8286;51.274;9.542;2023-03-31T08:29:42;2.70;;;1.70;;
16352;SDS011;8286;51.274;9.542;2023-03-31T08:32:08;4.77;;;1.43;;
16352;SDS011;8286;51.274;9.542;2023-03-31T08:34:34;2.43;;;1.50;;
16352;SDS011;8286;51.274;9.542;2023-03-31T08:37:02;2.83;;;1.33;;
16352;SDS011;8286;51.274;9.542;2023-03-31T08:39:28;5.03;;;1.53;;
16352;SDS011;8286;51.274;9.542;2023-03-31T08:41:56;7.33;;;2.07;;
16352;SDS011;8286;51.274;9.542;2023-03-31T08:44:28;4.53;;;1.80;;
16352;SDS011;8286;51.274;9.542;2023-03-31T08:46:57;1.93;;;1.20;;
16352;SDS011;8286;51.274;9.542;2023-03-31T08:49:26;2.37;;;1.10;;
16352;SDS011;8286;51.274;9.542;2023-03-31T08:51:54;3.43;;;1.20;;
16352;SDS011;8286;51.274;9.542;2023-03-31T08:54:27;1.00;;;1.00;;
16352;SDS011;8286;51.274;9.542;2023-03-31T08:56:56;1.03;;;1.00;;
16352;SDS011;8286;51.274;9.542;2023-03-31T08:59:25;5.30;;;1.00;;
16352;SDS011;8286;51.274;9.542;2023-03-31T09:01:55;1.60;;;1.00;;
16352;SDS011;8286;51.274;9.542;2023-03-31T09:04:33;0.80;;;0.80;;
16352;SDS011;8286;51.274;9.542;2023-03-31T09:07:28;1.07;;;0.90;;
16352;SDS011;8286;51.274;9.542;2023-03-31T09:10:01;0.97;;;0.93;;
16352;SDS011;8286;51.274;9.542;2023-03-31T09:12:34;2.43;;;0.90;;
16352;SDS011;8286;51.274;9.542;2023-03-31T09:15:08;1.10;;;0.77;;
16352;SDS011;8286;51.274;9.542;2023-03-31T09:17:37;3.20;;;0.73;;
16352;SDS011;8286;51.274;9.542;2023-03-31T09:20:10;1.03;;;0.80;;
16352;SDS011;8286;51.274;9.542;2023-03-31T09:22:38;1.17;;;0.70;;
16352;SDS011;8286;51.274;9.542;2023-03-31T09:25:09;2.23;;;0.50;;
16352;SDS011;8286;51.274;9.542;2023-03-31T09:27:38;1.27;;;0.60;;
16352;SDS011;8286;51.274;9.542;2023-03-31T09:30:10;0.80;;;0.80;;
16352;SDS011;8286;51.274;9.542;2023-03-31T09:32:39;0.73;;;0.73;;
16352;SDS011;8286;51.274;9.542;2023-03-31T09:35:12;0.80;;;0.80;;
16352;SDS011;8286;51.274;9.542;2023-03-31T09:37:42;1.67;;;0.97;;
16352;SDS011;8286;51.274;9.542;2023-03-31T09:40:12;1.00;;;0.90;;
16352;SDS011;8286;51.274;9.542;2023-03-31T09:42:41;1.00;;;1.00;;
16352;SDS011;8286;51.274;9.542;2023-03-31T09:45:13;0.80;;;0.80;;
16352;SDS011;8286;51.274;9.542;2023-03-31T09:47:41;1.07;;;0.80;;
16352;SDS011;8286;51.274;9.542;2023-03-31T09:50:09;1.77;;;1.33;;
16352;SDS011;8286;51.274;9.542;2023-03-31T09:52:36;1.80;;;0.80;;
16352;SDS011;8286;51.274;9.542;2023-03-31T09:55:05;0.90;;;0.87;;
16352;SDS011;8286;51.274;9.542;2023-03-31T09:57:43;1.70;;;0.77;;
16352;SDS011;8286;51.274;9.542;2023-03-31T10:00:14;4.33;;;0.93;;
16352;SDS011;8286;51.274;9.542;2023-03-31T10:02:43;0.83;;;0.80;;
16352;SDS011;8286;51.274;9.542;2023-03-31T10:05:17;0.70;;;0.70;;
16352;SDS011;8286;51.274;9.542;2023-03-31T10:07:47;1.17;;;0.90;;
16352;SDS011;8286;51.274;9.542;2023-03-31T10:10:18;6.80;;;1.17;;
16352;SDS011;8286;51.274;9.542;2023-03-31T10:12:51;1.50;;;0.97;;
16352;SDS011;8286;51.274;9.542;2023-03-31T10:15:20;0.63;;;0.63;;
16352;SDS011;8286;51.274;9.542;2023-03-31T10:17:48;0.80;;;0.80;;
16352;SDS011;8286;51.274;9.542;2023-03-31T10:20:19;0.80;;;0.80;;
16352;SDS011;8286;51.274;9.542;2023-03-31T10:22:52;0.63;;;0.50;;
16352;SDS011;8286;51.274;9.542;2023-03-31T10:25:19;0.70;;;0.70;;
16352;SDS011;8286;51.274;9.542;2023-03-31T10:27:48;2.10;;;1.07;;
16352;SDS011;8286;51.274;9.542;2023-03-31T10:30:19;1.37;;;0.83;;
16352;SDS011;8286;51.274;9.542;2023-03-31T10:32:48;1.93;;;0.97;;
16352;SDS011;8286;51.274;9.542;2023-03-31T10:35:20;3.33;;;1.10;;
16352;SDS011;8286;51.274;9.542;2023-03-31T10:37:48;1.47;;;1.20;;
16352;SDS011;8286;51.274;9.542;2023-03-31T10:40:18;1.40;;;1.07;;
16352;SDS011;8286;51.274;9.542;2023-03-31T10:42:48;1.00;;;0.93;;
16352;SDS011;8286;51.274;9.542;2023-03-31T10:45:25;1.50;;;0.83;;
16352;SDS011;8286;51.274;9.542;2023-03-31T10:47:53;1.27;;;1.00;;
16352;SDS011;8286;51.274;9.542;2023-03-31T10:50:25;2.07;;;1.23;;
16352;SDS011;8286;51.274;9.542;2023-03-31T10:52:53;1.07;;;1.03;;
16352;SDS011;8286;51.274;9.542;2023-03-31T10:55:27;1.33;;;0.93;;
16352;SDS011;8286;51.274;9.542;2023-03-31T10:57:59;2.10;;;0.90;;
16352;SDS011;8286;51.274;9.542;2023-03-31T11:00:30;0.70;;;0.70;;
16352;SDS011;8286;51.274;9.542;2023-03-31T11:03:19;1.53;;;1.20;;
16352;SDS011;8286;51.274;9.542;2023-03-31T11:05:55;1.10;;;0.80;;
16352;SDS011;8286;51.274;9.542;2023-03-31T11:08:25;1.93;;;0.67;;
16352;SDS011;8286;51.274;9.542;2023-03-31T11:11:11;2.07;;;1.07;;
16352;SDS011;8286;51.274;9.542;2023-03-31T11:13:46;1.00;;;1.00;;
16352;SDS011;8286;51.274;9.542;2023-03-31T11:16:19;1.30;;;0.97;;
16352;SDS011;8286;51.274;9.542;2023-03-31T11:18:55;0.80;;;0.80;;
16352;SDS011;8286;51.274;9.542;2023-03-31T11:21:29;1.80;;;1.13;;
16352;SDS011;8286;51.274;9.542;2023-03-31T11:24:03;2.37;;;1.00;;
16352;SDS011;8286;51.274;9.542;2023-03-31T11:26:37;2.17;;;0.80;;
16352;SDS011;8286;51.274;9.542;2023-03-31T11:29:13;1.05;;;0.80;;
16352;SDS011;8286;51.274;9.542;2023-03-31T11:31:49;2.90;;;1.00;;
16352;SDS011;8286;51.274;9.542;2023-03-31T11:34:24;0.95;;;0.80;;
16352;SDS011;8286;51.274;9.542;2023-03-31T11:37:09;3.60;;;1.13;;
16352;SDS011;8286;51.274;9.542;2023-03-31T11:39:44;3.83;;;1.20;;
16352;SDS011;8286;51.274;9.542;2023-03-31T11:42:17;1.40;;;1.30;;
16352;SDS011;8286;51.274;9.542;2023-03-31T11:44:47;3.43;;;1.10;;
16352;SDS011;8286;51.274;9.542;2023-03-31T11:47:19;2.20;;;1.00;;
16352;SDS011;8286;51.274;9.542;2023-03-31T11:49:47;1.53;;;0.90;;
16352;SDS011;8286;51.274;9.542;2023-03-31T11:52:17;3.07;;;1.20;;
16352;SDS011;8286;51.274;9.542;2023-03-31T11:54:48;1.70;;;1.17;;
16352;SDS011;8286;51.274;9.542;2023-03-31T11:57:19;4.50;;;1.87;;
16352;SDS011;8286;51.274;9.542;2023-03-31T11:59:51;3.57;;;1.20;;
16352;SDS011;8286;51.274;9.542;2023-03-31T12:02:22;3.07;;;1.20;;
16352;SDS011;8286;51.274;9.542;2023-03-31T12:04:54;1.70;;;1.20;;
16352;SDS011;8286;51.274;9.542;2023-03-31T12:07:23;2.33;;;1.00;;
16352;SDS011;8286;51.274;9.542;2023-03-31T12:09:54;1.60;;;1.10;;
16352;SDS011;8286;51.274;9.542;2023-03-31T12:12:30;4.93;;;1.17;;
16352;SDS011;8286;51.274;9.542;2023-03-31T12:15:01;3.00;;;1.20;;
16352;SDS011;8286;51.274;9.542;2023-03-31T12:17:32;2.70;;;1.40;;
16352;SDS011;8286;51.274;9.542;2023-03-31T12:20:02;2.87;;;1.40;;
16352;SDS011;8286;51.274;9.542;2023-03-31T12:22:34;2.73;;;0.90;;
16352;SDS011;8286;51.274;9.542;2023-03-31T12:25:03;5.23;;;1.50;;
16352;SDS011;8286;51.274;9.542;2023-03-31T12:27:31;3.03;;;1.43;;
16352;SDS011;8286;51.274;9.542;2023-03-31T12:30:02;2.47;;;1.33;;
16352;SDS011;8286;51.274;9.542;2023-03-31T12:32:31;2.73;;;1.67;;
16352;SDS011;8286;51.274;9.542;2023-03-31T12:35:03;3.97;;;1.23;;
16352;SDS011;8286;51.274;9.542;2023-03-31T12:37:42;1.90;;;1.20;;
16352;SDS011;8286;51.274;9.542;2023-03-31T12:40:21;5.73;;;1.00;;
16352;SDS011;8286;51.274;9.542;2023-03-31T12:43:06;2.67;;;1.73;;
16352;SDS011;8286;51.274;9.542;2023-03-31T12:45:40;1.33;;;1.10;;
16352;SDS011;8286;51.274;9.542;2023-03-31T12:48:12;3.57;;;1.47;;
16352;SDS011;8286;51.274;9.542;2023-03-31T12:50:52;5.80;;;1.67;;
16352;SDS011;8286;51.274;9.542;2023-03-31T12:53:24;3.77;;;1.10;;
16352;SDS011;8286;51.274;9.542;2023-03-31T12:55:55;3.90;;;1.80;;
16352;SDS011;8286;51.274;9.542;2023-03-31T12:58:38;7.60;;;1.67;;
16352;SDS011;8286;51.274;9.542;2023-03-31T13:01:10;6.07;;;1.40;;
16352;SDS011;8286;51.274;9.542;2023-03-31T13:03:49;4.70;;;1.63;;
16352;SDS011;8286;51.274;9.542;2023-03-31T13:06:44;3.93;;;1.10;;
16352;SDS011;8286;51.274;9.542;2023-03-31T13:12:16;1.17;;;1.00;;
16352;SDS011;8286;51.274;9.542;2023-03-31T13:14:45;1.87;;;0.83;;
16352;SDS011;8286;51.274;9.542;2023-03-31T13:17:20;3.70;;;0.83;;
16352;SDS011;8286;51.274;9.542;2023-03-31T13:19:50;2.07;;;0.80;;
16352;SDS011;8286;51.274;9.542;2023-03-31T13:22:31;2.43;;;1.10;;
16352;SDS011;8286;51.274;9.542;2023-03-31T13:27:52;3.60;;;1.13;;
16352;SDS011;8286;51.274;9.542;2023-03-31T13:33:11;3.80;;;1.00;;
16352;SDS011;8286;51.274;9.542;2023-03-31T13:35:40;3.50;;;1.50;;
16352;SDS011;8286;51.274;9.542;2023-03-31T13:38:11;3.80;;;1.07;;
16352;SDS011;8286;51.274;9.542;2023-03-31T13:40:47;1.13;;;0.83;;
16352;SDS011;8286;51.274;9.542;2023-03-31T13:43:37;1.67;;;1.10;;
16352;SDS011;8286;51.274;9.542;2023-03-31T13:46:15;1.80;;;0.93;;
16352;SDS011;8286;51.274;9.542;2023-03-31T13:48:54;3.03;;;1.13;;
16352;SDS011;8286;51.274;9.542;2023-03-31T13:51:27;3.60;;;1.50;;
16352;SDS011;8286;51.274;9.542;2023-03-31T13:54:02;2.47;;;1.30;;
16352;SDS011;8286;51.274;9.542;2023-03-31T13:56:45;0.90;;;0.90;;
16352;SDS011;8286;51.274;9.542;2023-03-31T13:59:27;2.13;;;1.10;;
16352;SDS011;8286;51.274;9.542;2023-03-31T14:02:01;2.83;;;0.80;;
16352;SDS011;8286;51.274;9.542;2023-03-31T14:04:57;1.60;;;0.87;;
16352;SDS011;8286;51.274;9.542;2023-03-31T14:07:37;1.23;;;0.97;;
16352;SDS011;8286;51.274;9.542;2023-03-31T14:10:14;2.27;;;0.90;;
16352;SDS011;8286;51.274;9.542;2023-03-31T14:12:47;2.27;;;0.70;;
16352;SDS011;8286;51.274;9.542;2023-03-31T14:15:16;1.20;;;0.70;;
16352;SDS011;8286;51.274;9.542;2023-03-31T14:17:45;7.30;;;1.60;;
16352;SDS011;8286;51.274;9.542;2023-03-31T14:20:17;2.63;;;0.80;;
16352;SDS011;8286;51.274;9.542;2023-03-31T14:22:54;2.77;;;0.80;;
16352;SDS011;8286;51.274;9.542;2023-03-31T14:25:31;2.20;;;0.80;;
16352;SDS011;8286;51.274;9.542;2023-03-31T14:28:08;2.27;;;0.70;;
16352;SDS011;8286;51.274;9.542;2023-03-31T14:30:44;1.20;;;1.10;;
16352;SDS011;8286;51.274;9.542;2023-03-31T14:33:20;1.63;;;0.70;;
16352;SDS011;8286;51.274;9.542;2023-03-31T14:35:54;0.70;;;0.70;;
16352;SDS011;8286;51.274;9.542;2023-03-31T14:38:24;1.33;;;0.93;;
16352;SDS011;8286;51.274;9.542;2023-03-31T14:40:53;0.97;;;0.97;;
16352;SDS011;8286;51.274;9.542;2023-03-31T14:43:22;2.60;;;0.57;;
16352;SDS011;8286;51.274;9.542;2023-03-31T14:45:57;0.50;;;0.50;;
16352;SDS011;8286;51.274;9.542;2023-03-31T14:48:25;0.90;;;0.80;;
16352;SDS011;8286;51.274;9.542;2023-03-31T14:50:55;1.73;;;0.87;;
16352;SDS011;8286;51.274;9.542;2023-03-31T14:53:24;4.03;;;1.00;;
16352;SDS011;8286;51.274;9.542;2023-03-31T14:55:52;1.67;;;0.73;;
16352;SDS011;8286;51.274;9.542;2023-03-31T14:58:22;1.50;;;1.00;;
16352;SDS011;8286;51.274;9.542;2023-03-31T15:00:51;2.37;;;0.87;;
16352;SDS011;8286;51.274;9.542;2023-03-31T15:03:19;1.17;;;1.07;;
16352;SDS011;8286;51.274;9.542;2023-03-31T15:05:45;1.90;;;0.93;;
16352;SDS011;8286;51.274;9.542;2023-03-31T15:08:13;2.30;;;0.80;;
16352;SDS011;8286;51.274;9.542;2023-03-31T15:10:43;0.97;;;0.80;;
16352;SDS011;8286;51.274;9.542;2023-03-31T15:13:13;1.73;;;0.87;;
16352;SDS011;8286;51.274;9.542;2023-03-31T15:15:41;3.03;;;0.70;;
16352;SDS011;8286;51.274;9.542;2023-03-31T15:18:10;2.07;;;1.03;;
16352;SDS011;8286;51.274;9.542;2023-03-31T15:20:37;2.73;;;0.80;;
16352;SDS011;8286;51.274;9.542;2023-03-31T15:23:17;3.87;;;0.97;;
16352;SDS011;8286;51.274;9.542;2023-03-31T15:25:50;3.37;;;0.90;;
16352;SDS011;8286;51.274;9.542;2023-03-31T15:28:17;3.40;;;1.00;;
16352;SDS011;8286;51.274;9.542;2023-03-31T15:30:44;1.70;;;1.00;;
16352;SDS011;8286;51.274;9.542;2023-03-31T15:33:16;1.00;;;0.90;;
16352;SDS011;8286;51.274;9.542;2023-03-31T15:35:44;1.70;;;1.00;;
16352;SDS011;8286;51.274;9.542;2023-03-31T15:38:12;4.30;;;1.10;;